createdAt,value
2019-04-25T00:00:13.247Z,100028.11
2019-04-25T00:01:49.113Z,100026.64
2019-04-25T00:03:25.140Z,100029.77
2019-04-25T00:04:59.348Z,100026.38
2019-04-25T00:06:34.748Z,100019.12
2019-04-25T00:08:11.463Z,100022.78
2019-04-25T00:09:51.721Z,100018.45
2019-04-25T00:11:26.674Z,100022.73
2019-04-25T00:13:01.696Z,100023.25
2019-04-25T00:14:38.071Z,100029.81
2019-04-25T00:16:12.906Z,100018.67
2019-04-25T00:17:47.144Z,100019.58
2019-04-25T00:19:21.867Z,100016.00
2019-04-25T00:20:57.887Z,100014.09
2019-04-25T00:22:36.504Z,100019.36
2019-04-25T00:24:18.655Z,100013.11
2019-04-25T00:26:01.366Z,100015.00
2019-04-25T00:27:35.840Z,100019.67
2019-04-25T00:29:10.292Z,100018.20
2019-04-25T00:30:44.692Z,100023.45
2019-04-25T00:32:21.582Z,100022.54
2019-04-25T00:33:56.145Z,100022.55
2019-04-25T00:35:31.548Z,100021.81
2019-04-25T00:37:07.644Z,100027.72
2019-04-25T00:38:46.230Z,100031.73
2019-04-25T00:40:18.324Z,100032.80
2019-04-25T00:41:53.567Z,100026.94
2019-04-25T00:43:28.702Z,100036.87
2019-04-25T00:45:03.440Z,100036.87
2019-04-25T00:46:37.672Z,100041.00
2019-04-25T00:48:12.277Z,100038.20
2019-04-25T00:49:46.668Z,100037.39
2019-04-25T00:51:21.737Z,100044.01
2019-04-25T00:52:56.136Z,100043.02
2019-04-25T00:54:31.319Z,100043.95
2019-04-25T00:56:05.649Z,100038.72
2019-04-25T00:57:42.686Z,100039.69
2019-04-25T00:59:32.093Z,100035.92
2019-04-25T01:01:12.078Z,100038.71
2019-04-25T01:02:49.584Z,100027.80
2019-04-25T01:04:24.284Z,100028.52
2019-04-25T01:05:58.537Z,100029.42
2019-04-25T01:07:34.479Z,100023.05
2019-04-25T01:09:10.366Z,100021.06
2019-04-25T01:10:45.847Z,100022.20
2019-04-25T01:12:21.583Z,100024.91
2019-04-25T01:13:56.152Z,100034.85
2019-04-25T01:15:31.442Z,100034.02
2019-04-25T01:17:05.796Z,100036.00
2019-04-25T01:18:40.024Z,100045.28
2019-04-25T01:20:15.507Z,100046.50
2019-04-25T01:21:49.760Z,100041.45
2019-04-25T01:23:24.132Z,100044.14
2019-04-25T01:24:58.370Z,100045.27
2019-04-25T01:26:33.862Z,100049.39
2019-04-25T01:28:08.182Z,100045.53
2019-04-25T01:29:42.477Z,100052.11
2019-04-25T01:31:18.497Z,100053.65
2019-04-25T01:32:54.283Z,100060.40
2019-04-25T01:34:34.252Z,100060.80
2019-04-25T01:36:26.661Z,100067.36
2019-04-25T01:38:11.669Z,100064.83
2019-04-25T01:39:55.069Z,100065.80
2019-04-25T01:41:31.280Z,100063.58
2019-04-25T01:43:13.784Z,100063.17
2019-04-25T01:44:50.112Z,100071.45
2019-04-25T01:46:24.447Z,100065.73
2019-04-25T01:47:58.665Z,100066.55
2019-04-25T01:49:33.948Z,100063.11
2019-04-25T01:51:08.548Z,100065.48
2019-04-25T01:52:50.683Z,100068.19
2019-04-25T01:54:26.445Z,100068.61
2019-04-25T01:56:05.491Z,100066.62
2019-04-25T01:57:36.713Z,100060.14
2019-04-25T01:59:10.928Z,100063.00
2019-04-25T02:00:51.345Z,100062.42
2019-04-25T02:02:26.793Z,100063.97
2019-04-25T02:04:03.256Z,100061.28
2019-04-25T02:05:37.466Z,100064.41
2019-04-25T02:07:13.435Z,100057.50
2019-04-25T02:08:47.762Z,100059.15
2019-04-25T02:10:23.399Z,100051.63
2019-04-25T02:11:59.716Z,100062.75
2019-04-25T02:13:35.783Z,100060.16
2019-04-25T02:15:11.110Z,100058.27
2019-04-25T02:16:45.388Z,100063.73
2019-04-25T02:18:19.616Z,100061.62
2019-04-25T02:19:55.499Z,100059.97
2019-04-25T02:21:29.802Z,100061.86
2019-04-25T02:23:04.455Z,100063.02
2019-04-25T02:24:38.710Z,100068.01
2019-04-25T02:26:18.178Z,100062.03
2019-04-25T02:27:49.432Z,100063.73
2019-04-25T02:29:23.703Z,100067.66
2019-04-25T02:31:00.614Z,100069.55
2019-04-25T02:32:36.784Z,100074.95
2019-04-25T02:34:09.956Z,100080.02
2019-04-25T02:35:46.659Z,100079.03
2019-04-25T02:37:20.716Z,100077.03
2019-04-25T02:38:58.531Z,100073.95
2019-04-25T02:40:30.818Z,100071.66
2019-04-25T02:42:07.881Z,100072.84
2019-04-25T02:43:41.623Z,100074.23
2019-04-25T02:45:24.531Z,100073.81
2019-04-25T02:47:14.811Z,100070.86
2019-04-25T02:49:02.636Z,100064.73
2019-04-25T02:50:40.384Z,100062.50
2019-04-25T02:52:24.455Z,100065.88
2019-04-25T02:53:59.496Z,100065.31
2019-04-25T02:55:36.884Z,100068.98
2019-04-25T02:57:09.917Z,100073.10
2019-04-25T02:58:44.451Z,100072.30
2019-04-25T03:00:25.257Z,100072.95
2019-04-25T03:02:00.749Z,100075.16
2019-04-25T03:03:35.367Z,100074.36
2019-04-25T03:05:10.176Z,100076.59
2019-04-25T03:06:45.645Z,100078.03
2019-04-25T03:08:20.084Z,100073.59
2019-04-25T03:09:54.887Z,100077.67
2019-04-25T03:11:29.332Z,100079.31
2019-04-25T03:13:07.045Z,100077.42
2019-04-25T03:14:39.829Z,100079.28
2019-04-25T03:16:14.252Z,100083.38
2019-04-25T03:17:49.302Z,100079.47
2019-04-25T03:19:43.801Z,100081.67
2019-04-25T03:21:18.985Z,100084.53
2019-04-25T03:22:54.735Z,100079.59
2019-04-25T03:24:29.117Z,100075.09
2019-04-25T03:26:05.806Z,100073.95
2019-04-25T03:27:40.168Z,100080.13
2019-04-25T03:29:14.406Z,100080.63
2019-04-25T03:30:48.690Z,100082.09
2019-04-25T03:32:27.996Z,100082.58
2019-04-25T03:33:58.794Z,100080.97
2019-04-25T03:35:33.256Z,100079.26
2019-04-25T03:37:07.711Z,100085.08
2019-04-25T03:38:42.131Z,100085.48
2019-04-25T03:40:16.384Z,100091.64
2019-04-25T03:41:50.612Z,100092.79
2019-04-25T03:43:24.880Z,100093.77
2019-04-25T03:44:59.624Z,100094.50
2019-04-25T03:46:34.133Z,100101.64
2019-04-25T03:48:08.385Z,100106.15
2019-04-25T03:49:43.462Z,100103.94
2019-04-25T03:51:17.994Z,100107.10
2019-04-25T03:52:53.925Z,100110.05
2019-04-25T03:54:28.265Z,100107.77
2019-04-25T03:56:04.474Z,100105.89
2019-04-25T03:57:38.412Z,100106.17
2019-04-25T03:59:14.692Z,100109.11
2019-04-25T04:00:48.507Z,100117.59
2019-04-25T04:02:23.511Z,100119.23
2019-04-25T04:03:57.917Z,100120.19
2019-04-25T04:05:32.142Z,100117.33
2019-04-25T04:07:08.812Z,100115.37
2019-04-25T04:08:42.243Z,100111.94
2019-04-25T04:10:16.500Z,100118.95
2019-04-25T04:11:50.725Z,100117.30
2019-04-25T04:13:25.021Z,100121.09
2019-04-25T04:14:59.304Z,100123.78
2019-04-25T04:16:35.468Z,100130.67
2019-04-25T04:18:11.339Z,100133.80
2019-04-25T04:19:47.201Z,100131.91
2019-04-25T04:21:23.570Z,100127.92
2019-04-25T04:23:09.230Z,100127.34
2019-04-25T04:24:45.060Z,100126.70
2019-04-25T04:26:19.448Z,100136.38
2019-04-25T04:27:54.353Z,100131.94
2019-04-25T04:29:29.250Z,100136.04
2019-04-25T04:31:03.744Z,100138.64
2019-04-25T04:32:38.233Z,100142.26
2019-04-25T04:34:14.345Z,100145.19
2019-04-25T04:35:48.372Z,100147.72
2019-04-25T04:37:24.453Z,100150.50
2019-04-25T04:38:58.676Z,100154.23
2019-04-25T04:40:36.145Z,100155.75
2019-04-25T04:42:10.317Z,100154.27
2019-04-25T04:43:44.622Z,100154.70
2019-04-25T04:45:18.852Z,100155.23
2019-04-25T04:46:53.827Z,100156.92
2019-04-25T04:48:28.156Z,100156.36
2019-04-25T04:50:03.895Z,100158.41
2019-04-25T04:51:38.172Z,100157.33
2019-04-25T04:53:14.712Z,100162.53
2019-04-25T04:54:48.311Z,100170.95
2019-04-25T04:56:23.962Z,100170.30
2019-04-25T04:57:58.424Z,100165.94
2019-04-25T04:59:33.733Z,100164.61
2019-04-25T05:01:08.177Z,100165.73
2019-04-25T05:02:59.762Z,100162.87
2019-04-25T05:04:41.441Z,100162.34
2019-04-25T05:06:17.409Z,100166.17
2019-04-25T05:07:53.911Z,100169.81
2019-04-25T05:09:28.514Z,100172.41
2019-04-25T05:11:04.051Z,100173.17
2019-04-25T05:12:38.420Z,100170.62
2019-04-25T05:14:14.741Z,100167.00
2019-04-25T05:15:48.524Z,100164.39
2019-04-25T05:17:23.728Z,100164.97
2019-04-25T05:18:58.965Z,100169.52
2019-04-25T05:20:34.192Z,100168.03
2019-04-25T05:22:09.101Z,100163.19
2019-04-25T05:23:44.310Z,100160.15
2019-04-25T05:25:19.133Z,100158.44
2019-04-25T05:26:54.008Z,100160.33
2019-04-25T05:28:28.273Z,100152.80
2019-04-25T05:30:04.018Z,100149.03
2019-04-25T05:31:40.045Z,100145.05
2019-04-25T05:33:17.617Z,100144.05
2019-04-25T05:34:53.252Z,100140.83
2019-04-25T05:36:29.404Z,100150.77
2019-04-25T05:38:03.637Z,100148.40
2019-04-25T05:39:37.904Z,100152.41
2019-04-25T05:41:16.894Z,100153.17
2019-04-25T05:42:54.237Z,100156.38
2019-04-25T05:44:28.547Z,100156.55
2019-04-25T05:46:04.327Z,100156.59
2019-04-25T05:47:38.944Z,100155.82
2019-04-25T05:49:13.810Z,100156.67
2019-04-25T05:50:48.964Z,100157.47
2019-04-25T05:52:24.282Z,100161.09
2019-04-25T05:53:59.101Z,100155.64
2019-04-25T05:55:34.194Z,100158.11
2019-04-25T05:57:08.652Z,100157.05
2019-04-25T05:58:43.929Z,100157.00
2019-04-25T06:00:19.032Z,100155.52
2019-04-25T06:01:53.828Z,100163.87
2019-04-25T06:03:28.277Z,100154.44
2019-04-25T06:05:03.586Z,100156.15
2019-04-25T06:06:38.476Z,100165.98
2019-04-25T06:08:14.154Z,100159.91
2019-04-25T06:09:50.260Z,100154.84
2019-04-25T06:11:33.549Z,100154.36
2019-04-25T06:13:15.434Z,100151.71
2019-04-25T06:14:49.716Z,100152.33
2019-04-25T06:16:27.052Z,100155.19
2019-04-25T06:18:06.101Z,100152.91
2019-04-25T06:19:43.438Z,100153.44
2019-04-25T06:21:18.019Z,100149.77
2019-04-25T06:23:10.632Z,100151.51
2019-04-25T06:24:46.508Z,100147.98
2019-04-25T06:26:31.864Z,100153.23
2019-04-25T06:28:01.436Z,100150.62
2019-04-25T06:29:35.676Z,100150.53
2019-04-25T06:31:10.478Z,100147.02
2019-04-25T06:32:44.933Z,100141.38
2019-04-25T06:34:20.012Z,100146.48
2019-04-25T06:35:54.766Z,100152.48
2019-04-25T06:37:30.341Z,100150.45
2019-04-25T06:39:06.977Z,100151.77
2019-04-25T06:40:41.208Z,100142.69
2019-04-25T06:42:15.441Z,100150.59
2019-04-25T06:43:51.360Z,100148.42
2019-04-25T06:45:29.002Z,100147.85
2019-04-25T06:47:17.032Z,100148.47
2019-04-25T06:48:56.155Z,100149.83
2019-04-25T06:50:30.428Z,100149.34
2019-04-25T06:52:04.668Z,100140.09
2019-04-25T06:53:38.965Z,100140.28
2019-04-25T06:55:14.090Z,100138.85
2019-04-25T06:56:48.760Z,100139.67
2019-04-25T06:58:25.641Z,100143.20
2019-04-25T06:59:58.857Z,100145.32
2019-04-25T07:01:34.627Z,100142.81
2019-04-25T07:03:09.052Z,100147.64
2019-04-25T07:04:43.536Z,100145.16
2019-04-25T07:06:19.156Z,100147.77
2019-04-25T07:07:53.480Z,100144.98
2019-04-25T07:09:29.535Z,100142.77
2019-04-25T07:11:04.201Z,100144.98
2019-04-25T07:12:38.432Z,100146.72
2019-04-25T07:14:14.236Z,100145.49
2019-04-25T07:15:48.714Z,100141.72
2019-04-25T07:17:24.166Z,100148.42
2019-04-25T07:18:58.824Z,100150.06
2019-04-25T07:20:34.537Z,100145.05
2019-04-25T07:22:09.081Z,100146.38
2019-04-25T07:23:46.145Z,100139.81
2019-04-25T07:25:20.700Z,100140.95
2019-04-25T07:27:13.770Z,100140.28
2019-04-25T07:28:49.667Z,100140.41
2019-04-25T07:30:49.986Z,100138.73
2019-04-25T07:32:18.332Z,100138.22
2019-04-25T07:33:54.184Z,100134.83
2019-04-25T07:35:29.026Z,100132.56
2019-04-25T07:37:03.516Z,100131.34
2019-04-25T07:38:37.675Z,100129.23
2019-04-25T07:40:13.935Z,100130.83
2019-04-25T07:41:48.655Z,100134.73
2019-04-25T07:43:23.384Z,100135.02
2019-04-25T07:44:58.099Z,100131.34
2019-04-25T07:46:37.253Z,100132.03
2019-04-25T07:48:08.588Z,100128.29
2019-04-25T07:49:43.383Z,100124.16
2019-04-25T07:51:17.568Z,100126.47
2019-04-25T07:52:51.766Z,100123.25
2019-04-25T07:54:27.530Z,100123.68
2019-04-25T07:56:01.882Z,100121.99
2019-04-25T07:57:36.304Z,100124.72
2019-04-25T07:59:10.633Z,100126.33
2019-04-25T08:00:44.844Z,100127.50
2019-04-25T08:02:19.120Z,100125.54
2019-04-25T08:03:53.750Z,100122.72
2019-04-25T08:05:29.495Z,100123.56
2019-04-25T08:07:04.214Z,100119.77
2019-04-25T08:08:38.358Z,100122.13
2019-04-25T08:10:14.742Z,100121.73
2019-04-25T08:11:48.989Z,100125.36
2019-04-25T08:13:24.167Z,100121.84
2019-04-25T08:15:15.356Z,100121.84
2019-04-25T08:16:51.216Z,100116.23
2019-04-25T08:18:25.572Z,100119.36
2019-04-25T08:19:59.779Z,100118.75
2019-04-25T08:21:34.457Z,100117.61
2019-04-25T08:23:09.913Z,100122.14
2019-04-25T08:24:44.285Z,100126.87
2019-04-25T08:26:18.545Z,100065.62
2019-04-25T08:27:53.530Z,100111.75
2019-04-25T08:29:28.620Z,100106.81
2019-04-25T08:31:03.575Z,100110.19
2019-04-25T08:32:37.954Z,100111.47
2019-04-25T08:34:12.166Z,100108.20
2019-04-25T08:36:03.432Z,100100.16
2019-04-25T08:37:24.031Z,100103.64
2019-04-25T08:38:58.375Z,100100.35
2019-04-25T08:40:35.007Z,100097.11
2019-04-25T08:42:08.453Z,100106.61
2019-04-25T08:43:44.952Z,100105.16
2019-04-25T08:45:19.292Z,100103.69
2019-04-25T08:46:54.009Z,100101.16
2019-04-25T08:48:30.478Z,100098.29
2019-04-25T08:50:26.694Z,100091.73
2019-04-25T08:51:55.553Z,100096.01
2019-04-25T08:53:31.579Z,100097.85
2019-04-25T08:55:09.072Z,100088.81
2019-04-25T08:56:43.972Z,100101.80
2019-04-25T08:58:37.722Z,100097.27
2019-04-25T09:00:17.624Z,100095.89
2019-04-25T09:01:53.613Z,100096.54
2019-04-25T09:03:45.621Z,100092.80
2019-04-25T09:05:24.453Z,100084.83
2019-04-25T09:06:58.737Z,100090.76
2019-04-25T09:08:35.471Z,100090.91
2019-04-25T09:10:09.256Z,100093.23
2019-04-25T09:11:44.625Z,100088.13
2019-04-25T09:13:19.444Z,100084.44
2019-04-25T09:14:54.216Z,100078.89
2019-04-25T09:16:28.632Z,100079.91
2019-04-25T09:18:04.052Z,100073.47
2019-04-25T09:19:38.504Z,100072.29
2019-04-25T09:21:13.762Z,100070.52
2019-04-25T09:22:48.187Z,100071.06
2019-04-25T09:24:22.398Z,100070.58
2019-04-25T09:25:56.608Z,100064.39
2019-04-25T09:27:30.873Z,100059.80
2019-04-25T09:29:16.925Z,100057.63
2019-04-25T09:30:42.433Z,100057.89
2019-04-25T09:32:18.753Z,100055.08
2019-04-25T09:33:54.604Z,100046.14
2019-04-25T09:35:28.855Z,100051.44
2019-04-25T09:37:03.553Z,100051.57
2019-04-25T09:38:37.769Z,100047.66
2019-04-25T09:40:15.836Z,100041.69
2019-04-25T09:41:50.121Z,100034.32
2019-04-25T09:43:24.401Z,100030.74
2019-04-25T09:45:05.964Z,100025.09
2019-04-25T09:46:40.788Z,100025.23
2019-04-25T09:48:34.356Z,100020.22
2019-04-25T09:50:10.980Z,100013.69
2019-04-25T09:51:47.032Z,100005.63
2019-04-25T09:53:23.776Z,100005.91
2019-04-25T09:54:58.821Z,100008.11
2019-04-25T09:56:34.706Z,100004.42
2019-04-25T09:58:10.556Z,100002.17
2019-04-25T09:59:46.257Z,99997.67
2019-04-25T10:01:21.618Z,99995.17
2019-04-25T10:02:56.072Z,99996.52
2019-04-25T10:04:30.280Z,99992.99
2019-04-25T10:06:05.171Z,99994.42
2019-04-25T10:07:39.451Z,99991.56
2019-04-25T10:09:15.596Z,99984.14
2019-04-25T10:10:49.620Z,99982.25
2019-04-25T10:12:23.825Z,99978.06
2019-04-25T10:14:19.357Z,99975.88
2019-04-25T10:15:59.098Z,99976.03
2019-04-25T10:17:33.793Z,99976.21
2019-04-25T10:19:08.322Z,99983.97
2019-04-25T10:20:43.480Z,99983.80
2019-04-25T10:22:18.487Z,99991.78
2019-04-25T10:23:53.481Z,99999.34
2019-04-25T10:25:27.789Z,99991.44
2019-04-25T10:27:03.643Z,99984.49
2019-04-25T10:28:39.615Z,99986.27
2019-04-25T10:30:20.557Z,99987.66
2019-04-25T10:31:55.453Z,99985.04
2019-04-25T10:33:28.664Z,99987.03
2019-04-25T10:35:03.185Z,99976.98
2019-04-25T10:36:39.778Z,99976.46
2019-04-25T10:38:14.335Z,99977.99
2019-04-25T10:39:48.953Z,99974.31
2019-04-25T10:41:24.479Z,99969.56
2019-04-25T10:42:58.816Z,99970.91
2019-04-25T10:44:33.838Z,99958.11
2019-04-25T10:46:10.977Z,99971.52
2019-04-25T10:47:45.323Z,99971.48
2019-04-25T10:49:19.816Z,99973.57
2019-04-25T10:50:55.721Z,99974.02
2019-04-25T10:52:30.062Z,99973.16
2019-04-25T10:54:04.426Z,99976.48
2019-04-25T10:55:38.616Z,99969.14
2019-04-25T10:57:12.833Z,99975.05
2019-04-25T10:58:47.932Z,99966.54
2019-04-25T11:00:28.476Z,99967.09
2019-04-25T11:02:04.026Z,99969.87
2019-04-25T11:03:41.193Z,99968.21
2019-04-25T11:05:17.163Z,99971.71
2019-04-25T11:06:51.746Z,99967.67
2019-04-25T11:08:26.125Z,99974.14
2019-04-25T11:10:00.332Z,99963.47
2019-04-25T11:11:35.943Z,99964.60
2019-04-25T11:13:10.196Z,99960.28
2019-04-25T11:14:44.412Z,99956.58
2019-04-25T11:16:18.700Z,99955.77
2019-04-25T11:17:54.834Z,99961.89
2019-04-25T11:19:28.868Z,99959.69
2019-04-25T11:21:04.301Z,99957.14
2019-04-25T11:22:39.435Z,99958.42
2019-04-25T11:24:14.288Z,99960.17
2019-04-25T11:25:48.765Z,99967.95
2019-04-25T11:27:23.954Z,99957.87
2019-04-25T11:28:58.619Z,99960.16
2019-04-25T11:30:33.112Z,99960.20
2019-04-25T11:32:07.378Z,99964.09
2019-04-25T11:33:41.592Z,99960.45
2019-04-25T11:35:15.909Z,99961.11
2019-04-25T11:36:50.737Z,99952.44
2019-04-25T11:38:42.674Z,99959.31
2019-04-25T11:40:19.966Z,99957.66
2019-04-25T11:41:55.540Z,99962.53
2019-04-25T11:43:30.183Z,99960.80
2019-04-25T11:45:07.621Z,99966.67
2019-04-25T11:46:43.448Z,99975.11
2019-04-25T11:48:17.820Z,99970.44
2019-04-25T11:49:52.158Z,99970.94
2019-04-25T11:51:26.369Z,99967.41
2019-04-25T11:53:00.974Z,99960.48
2019-04-25T11:54:35.224Z,99969.81
2019-04-25T11:56:09.444Z,99966.72
2019-04-25T11:57:47.334Z,99965.70
2019-04-25T11:59:19.613Z,99966.47
2019-04-25T12:00:56.460Z,99964.30
2019-04-25T12:02:30.228Z,99958.81
2019-04-25T12:04:04.580Z,99952.02
2019-04-25T12:05:38.793Z,99957.28
2019-04-25T12:07:14.339Z,99949.81
2019-04-25T12:08:49.095Z,99949.80
2019-04-25T12:10:24.544Z,99945.98
2019-04-25T12:11:58.824Z,99949.27
2019-04-25T12:13:34.534Z,99945.20
2019-04-25T12:15:08.956Z,99946.16
2019-04-25T12:16:46.153Z,99949.23
2019-04-25T12:18:19.073Z,99942.56
2019-04-25T12:19:54.654Z,99942.92
2019-04-25T12:21:29.336Z,99946.63
2019-04-25T12:23:09.981Z,99936.98
2019-04-25T12:24:40.013Z,99943.84
2019-04-25T12:26:14.350Z,99948.63
2019-04-25T12:27:49.960Z,99941.16
2019-04-25T12:29:24.507Z,99938.17
2019-04-25T12:30:58.832Z,99940.56
2019-04-25T12:32:35.033Z,99943.33
2019-04-25T12:34:08.889Z,99935.08
2019-04-25T12:35:43.680Z,99936.91
2019-04-25T12:37:18.585Z,99928.30
2019-04-25T12:38:54.536Z,99935.27
2019-04-25T12:40:28.714Z,99929.23
2019-04-25T12:42:04.309Z,99931.30
2019-04-25T12:43:40.464Z,99930.48
2019-04-25T12:45:16.462Z,99921.58
2019-04-25T12:46:52.830Z,99918.43
2019-04-25T12:48:28.184Z,99919.63
2019-04-25T12:50:03.966Z,99920.36
2019-04-25T12:51:38.516Z,99909.23
2019-04-25T12:53:13.953Z,99908.25
2019-04-25T12:54:49.167Z,99912.36
2019-04-25T12:56:25.080Z,99906.02
2019-04-25T12:57:59.351Z,99904.51
2019-04-25T12:59:33.563Z,99905.73
2019-04-25T13:01:08.392Z,99899.44
2019-04-25T13:02:44.591Z,99893.03
2019-04-25T13:04:18.782Z,99900.05
2019-04-25T13:05:54.023Z,99901.95
2019-04-25T13:07:28.332Z,99893.27
2019-04-25T13:09:04.271Z,99892.02
2019-04-25T13:10:38.592Z,99892.27
2019-04-25T13:12:14.977Z,99889.55
2019-04-25T13:13:49.572Z,99882.89
2019-04-25T13:15:25.796Z,99887.62
2019-04-25T13:17:00.063Z,99888.15
2019-04-25T13:18:34.284Z,99887.60
2019-04-25T13:20:09.003Z,99891.95
2019-04-25T13:21:43.343Z,99878.33
2019-04-25T13:23:17.680Z,99880.75
2019-04-25T13:24:51.887Z,99877.19
2019-04-25T13:26:28.076Z,99877.55
2019-04-25T13:28:09.883Z,99880.98
2019-04-25T13:29:54.875Z,99883.41
2019-04-25T13:31:36.473Z,99879.94
2019-04-25T13:33:27.725Z,99878.93
2019-04-25T13:35:23.403Z,99875.80
2019-04-25T13:36:58.135Z,99870.89
2019-04-25T13:38:32.630Z,99870.33
2019-04-25T13:40:08.513Z,99866.98
2019-04-25T13:41:44.620Z,99871.86
2019-04-25T13:43:19.005Z,99866.23
2019-04-25T13:44:54.305Z,99860.30
2019-04-25T13:46:29.160Z,99861.01
2019-04-25T13:48:05.010Z,99849.33
2019-04-25T13:49:39.273Z,99853.97
2019-04-25T13:51:14.158Z,99847.70
2019-04-25T13:52:48.544Z,99846.67
2019-04-25T13:54:24.039Z,99842.22
2019-04-25T13:55:58.681Z,99846.89
2019-04-25T13:57:33.201Z,99842.56
2019-04-25T13:59:08.607Z,99842.83
2019-04-25T14:00:44.201Z,99843.06
2019-04-25T14:02:18.644Z,99839.88
2019-04-25T14:03:54.265Z,99845.46
2019-04-25T14:05:28.669Z,99845.86
2019-04-25T14:07:02.981Z,99848.79
2019-04-25T14:08:37.185Z,99846.72
2019-04-25T14:10:11.617Z,99845.74
2019-04-25T14:11:46.004Z,99840.20
2019-04-25T14:13:21.161Z,99835.49
2019-04-25T14:14:56.296Z,99840.21
2019-04-25T14:16:34.981Z,99840.17
2019-04-25T14:18:13.787Z,99836.26
2019-04-25T14:20:06.264Z,99838.45
2019-04-25T14:21:40.559Z,99840.53
2019-04-25T14:23:15.156Z,99838.39
2019-04-25T14:24:49.388Z,99840.25
2019-04-25T14:26:25.090Z,99834.67
2019-04-25T14:27:59.272Z,99828.83
2019-04-25T14:29:33.536Z,99838.40
2019-04-25T14:31:09.456Z,99830.30
2019-04-25T14:32:43.740Z,99827.54
2019-04-25T14:34:17.969Z,99831.77
2019-04-25T14:35:53.340Z,99828.34
2019-04-25T14:37:31.774Z,99827.92
2019-04-25T14:39:05.516Z,99828.63
2019-04-25T14:40:42.165Z,99829.55
2019-04-25T14:42:15.593Z,99822.78
2019-04-25T14:43:49.847Z,99824.97
2019-04-25T14:45:24.464Z,99827.03
2019-04-25T14:47:00.378Z,99821.09
2019-04-25T14:48:34.633Z,99818.88
2019-04-25T14:50:09.144Z,99819.27
2019-04-25T14:51:43.432Z,99820.05
2019-04-25T14:53:17.668Z,99818.35
2019-04-25T14:54:58.984Z,99814.80
2019-04-25T14:56:46.682Z,99819.41
2019-04-25T14:58:22.884Z,99818.50
2019-04-25T14:59:57.756Z,99812.92
2019-04-25T15:01:44.006Z,99817.55
2019-04-25T15:03:08.132Z,99811.18
2019-04-25T15:04:42.721Z,99809.44
2019-04-25T15:06:17.000Z,99805.44
2019-04-25T15:07:51.262Z,99811.02
2019-04-25T15:09:26.730Z,99807.83
2019-04-25T15:11:01.160Z,99805.30
2019-04-25T15:12:35.380Z,99803.05
2019-04-25T15:14:09.674Z,99796.72
2019-04-25T15:15:43.880Z,99797.42
2019-04-25T15:17:18.710Z,99801.11
2019-04-25T15:18:52.931Z,99798.56
2019-04-25T15:20:28.253Z,99797.80
2019-04-25T15:22:02.781Z,99803.09
2019-04-25T15:23:37.000Z,99805.48
2019-04-25T15:25:11.221Z,99799.61
2019-04-25T15:26:45.520Z,99798.56
2019-04-25T15:28:19.777Z,99802.83
2019-04-25T15:29:53.999Z,99798.16
2019-04-25T15:31:30.125Z,99797.82
2019-04-25T15:33:04.466Z,99798.75
2019-04-25T15:34:42.826Z,99796.41
2019-04-25T15:36:18.673Z,99793.76
2019-04-25T15:38:03.890Z,99788.92
2019-04-25T15:39:58.477Z,99791.29
2019-04-25T15:41:37.484Z,99786.70
2019-04-25T15:43:31.461Z,99790.34
2019-04-25T15:45:11.229Z,99782.67
2019-04-25T15:46:47.082Z,99779.65
2019-04-25T15:48:21.300Z,99779.95
2019-04-25T15:49:55.508Z,99779.16
2019-04-25T15:51:29.962Z,99778.04
2019-04-25T15:53:04.150Z,99784.39
2019-04-25T15:54:38.365Z,99780.20
2019-04-25T15:56:12.575Z,99777.50
2019-04-25T15:57:46.825Z,99780.44
2019-04-25T15:59:21.040Z,99788.91
2019-04-25T16:00:55.930Z,99790.17
2019-04-25T16:02:32.393Z,99789.13
2019-04-25T16:04:06.751Z,99792.01
2019-04-25T16:05:41.288Z,99788.88
2019-04-25T16:07:15.772Z,99784.12
2019-04-25T16:08:50.063Z,99785.34
2019-04-25T16:10:24.318Z,99781.52
2019-04-25T16:11:58.532Z,99784.04
2019-04-25T16:13:32.797Z,99782.07
2019-04-25T16:15:08.489Z,99785.75
2019-04-25T16:16:42.701Z,99784.88
2019-04-25T16:18:16.977Z,99791.45
2019-04-25T16:19:51.245Z,99780.93
2019-04-25T16:21:25.542Z,99783.19
2019-04-25T16:23:05.394Z,99786.59
2019-04-25T16:24:39.755Z,99789.37
2019-04-25T16:26:14.473Z,99784.31
2019-04-25T16:27:48.691Z,99791.52
2019-04-25T16:29:22.917Z,99788.27
2019-04-25T16:30:57.188Z,99787.17
2019-04-25T16:32:32.386Z,99786.55
2019-04-25T16:34:06.874Z,99786.69
2019-04-25T16:35:41.153Z,99785.13
2019-04-25T16:37:15.367Z,99779.39
2019-04-25T16:38:49.629Z,99780.92
2019-04-25T16:40:24.221Z,99781.84
2019-04-25T16:41:58.504Z,99781.77
2019-04-25T16:43:35.201Z,99777.66
2019-04-25T16:45:09.594Z,99783.27
2019-04-25T16:46:44.128Z,99784.11
2019-04-25T16:48:18.804Z,99781.32
2019-04-25T16:49:53.735Z,99788.06
2019-04-25T16:51:28.334Z,99784.38
2019-04-25T16:53:02.936Z,99784.21
2019-04-25T16:54:38.051Z,99789.03
2019-04-25T16:56:12.917Z,99790.81
2019-04-25T16:57:47.127Z,99794.33
2019-04-25T16:59:21.362Z,99801.68
2019-04-25T17:00:57.242Z,99798.18
2019-04-25T17:02:35.730Z,99802.91
2019-04-25T17:04:08.345Z,99805.99
2019-04-25T17:05:43.029Z,99809.44
2019-04-25T17:07:20.484Z,99805.23
2019-04-25T17:08:54.783Z,99810.81
2019-04-25T17:10:28.992Z,99814.23
2019-04-25T17:12:03.592Z,99816.25
2019-04-25T17:13:39.498Z,99813.05
2019-04-25T17:15:32.077Z,99819.48
2019-04-25T17:17:16.941Z,99815.77
2019-04-25T17:19:05.292Z,99815.81
2019-04-25T17:20:41.780Z,99811.89
2019-04-25T17:22:16.044Z,99813.88
2019-04-25T17:23:50.316Z,99810.92
2019-04-25T17:25:25.092Z,99809.77
2019-04-25T17:26:59.334Z,99816.11
2019-04-25T17:28:35.248Z,99822.98
2019-04-25T17:30:11.690Z,99816.65
2019-04-25T17:31:59.421Z,99822.06
2019-04-25T17:33:44.482Z,99820.99
2019-04-25T17:35:26.479Z,99820.78
2019-04-25T17:37:17.335Z,99826.11
2019-04-25T17:38:53.202Z,99826.48
2019-04-25T17:40:32.794Z,99830.95
2019-04-25T17:42:08.097Z,99829.84
2019-04-25T17:43:42.421Z,99835.98
2019-04-25T17:45:18.287Z,99831.02
2019-04-25T17:46:52.505Z,99834.91
2019-04-25T17:48:26.740Z,99833.70
2019-04-25T17:50:01.026Z,99833.85
2019-04-25T17:51:35.263Z,99835.30
2019-04-25T17:53:09.488Z,99834.92
2019-04-25T17:54:43.697Z,99833.14
2019-04-25T17:56:18.096Z,99832.11
2019-04-25T17:57:52.321Z,99833.01
2019-04-25T17:59:26.581Z,99839.13
2019-04-25T18:01:00.873Z,99839.87
2019-04-25T18:02:35.100Z,99845.16
2019-04-25T18:04:09.326Z,99846.92
2019-04-25T18:05:44.565Z,99790.67
2019-04-25T18:07:18.883Z,99856.11
2019-04-25T18:08:53.075Z,99850.60
2019-04-25T18:10:27.563Z,99857.22
2019-04-25T18:12:01.820Z,99850.78
2019-04-25T18:13:38.500Z,99853.09
2019-04-25T18:15:13.784Z,99853.33
2019-04-25T18:16:49.382Z,99851.91
2019-04-25T18:18:41.437Z,99856.80
2019-04-25T18:20:20.391Z,99854.53
2019-04-25T18:21:56.257Z,99852.95
2019-04-25T18:23:44.001Z,99852.97
2019-04-25T18:25:31.812Z,99855.28
2019-04-25T18:27:19.621Z,99850.58
2019-04-25T18:29:07.486Z,99846.35
2019-04-25T18:30:43.249Z,99852.59